Pagrindinis puslapis
METAR-TAF:

METAR-TAF

Oro uostai :

Alta, Norvegija

platuma: 69-59N, ilguma: 023-22E, Aukštis: 0 m

Dabartinis oras

Ataskaita buvo paskelbta 22 minutes, ne 10:20 UTC
Vėjas 4 kt iš Šiaurės/Šiaurės Vakarų
Temperatūra 10°C
Drėgmė 76%
Slėgis 1030 hPa
Matomumas 10 km arba daugiau
nėra debesų žemiau 1500 m ir nėra kamuolinių lietaus debesų

METAR: ENAT 311020Z 33004KT CAVOK 10/06 Q1030 RMK WIND 700FT 34006KT

Laikas: 12:42 (10:42 UTC)

Prognozė

Ataskaita buvo paskelbta 2 valandos ir 42 minutes, ne 08:00 UTC
Prognozė galioja nuo 31 metu 09 UTC su 31 metu 17 UTC
Vėjas 5 kt nuo kintamojo kryptimis
Matomumas 10 km arba daugiau
Mažai debesys ne aukštis 2000 ft
Su prošvaistėmis ne aukštis 4000 ft
Tikimybė 30% :
Laikinai
nuo 31 metu 09 UTC su 31 metu 17 UTC
Vėjas 10 kt iš Šiaurės Vakarų

TAF: ENAT 310800Z 3109/3117 VRB05KT 9999 FEW020 BKN040 PROB30 TEMPO 3109/3117 32010KT

Orai ataskaitas ir orų prognozės (METAR, TAF).

turimą stotys yra geltonos ir raudonos taškus žemėlapyje.

Perkelti pele per norėdami pamatyti stoties vardą.

Tada spustelėkite, norėdami matyti oro stebėjimo ir prognozės.

Norėdami pakeisti žemėlapį: spustelėkite ant žalios mygtukų su juodo kryžiaus žemyn,; žalią mygtuką su brūkšneliu, jei norite nutolinti; arba žalių rodyklių gretimoms žemėlapius.


METAR-TAF: